Terminal Aerodrome Forecast
Issued by NWS

Home | Current Version | Previous Version | Text Only | Print | Product List | Glossary On
Versions: 1 2 3 4 5 6 7 8 9 10 11 12 13 14 15 16 17 18 19 20 21
000
FTUS43 KICT 190500
TAFCNU
TAF
KCNU 190520Z 1906/2006 10004KT P6SM SCT010
     FM190900 12004KT 3SM BR OVC008
     FM191500 16008KT P6SM FEW020
     FM200100 15005KT P6SM SCT250=

USA.gov is the U.S. government's official web portal to all federal, state and local government web resources and services.